createdAt,value
2018-02-14T00:01:30.604Z,96.70
2018-02-14T00:03:59.723Z,96.70
2018-02-14T00:06:28.111Z,96.60
2018-02-14T00:08:56.591Z,96.30
2018-02-14T00:11:24.919Z,96.20
2018-02-14T00:13:53.356Z,96.10
2018-02-14T00:16:21.693Z,96.00
2018-02-14T00:18:50.800Z,96.40
2018-02-14T00:21:19.140Z,96.40
2018-02-14T00:23:47.583Z,96.40
2018-02-14T00:26:15.933Z,96.40
2018-02-14T00:28:45.216Z,96.40
2018-02-14T00:31:14.343Z,96.50
2018-02-14T00:33:42.683Z,96.40
2018-02-14T00:36:11.039Z,96.70
2018-02-14T00:38:39.379Z,96.80
2018-02-14T00:41:07.715Z,96.60
2018-02-14T00:43:36.063Z,96.50
2018-02-14T00:46:04.513Z,96.50
2018-02-14T00:48:32.960Z,96.50
2018-02-14T00:51:01.298Z,96.40
2018-02-14T00:53:29.632Z,96.40
2018-02-14T00:55:58.754Z,96.70
2018-02-14T00:58:27.097Z,96.70
2018-02-14T01:00:55.441Z,96.90
2018-02-14T01:03:23.781Z,97.00
2018-02-14T01:05:52.114Z,97.00
2018-02-14T01:08:20.505Z,97.10
2018-02-14T01:10:49.248Z,97.30
2018-02-14T01:13:17.577Z,97.20
2018-02-14T01:15:45.915Z,97.60
2018-02-14T01:18:14.264Z,97.40
2018-02-14T01:20:44.302Z,96.90
2018-02-14T01:23:12.697Z,96.90
2018-02-14T01:25:41.032Z,97.00
2018-02-14T01:28:09.435Z,96.90
2018-02-14T01:30:37.778Z,97.00
2018-02-14T01:33:06.305Z,97.10
2018-02-14T01:35:34.643Z,97.30
2018-02-14T01:38:03.771Z,97.40
2018-02-14T01:40:32.135Z,97.40
2018-02-14T01:43:01.104Z,97.20
2018-02-14T01:45:29.444Z,97.20
2018-02-14T01:47:57.808Z,97.20
2018-02-14T01:50:42.945Z,97.10
2018-02-14T01:53:11.315Z,97.30
2018-02-14T01:55:39.660Z,97.30
2018-02-14T01:58:08.004Z,97.60
2018-02-14T02:00:36.398Z,97.50
2018-02-14T02:03:04.819Z,97.70
2018-02-14T02:05:33.218Z,97.90
2018-02-14T02:08:01.616Z,98.10
2018-02-14T02:10:30.013Z,98.00
2018-02-14T02:12:58.538Z,98.10
2018-02-14T02:15:26.917Z,98.00
2018-02-14T02:17:55.399Z,98.30
2018-02-14T02:20:23.955Z,98.20
2018-02-14T02:22:52.345Z,98.50
2018-02-14T02:25:20.733Z,98.60
2018-02-14T02:27:49.139Z,98.70
2018-02-14T02:30:17.527Z,98.90
2018-02-14T02:32:46.681Z,98.90
2018-02-14T02:35:15.067Z,98.90
2018-02-14T02:37:43.588Z,99.20
2018-02-14T02:40:24.625Z,99.40
2018-02-14T02:42:53.102Z,99.00
2018-02-14T02:45:21.476Z,99.10
2018-02-14T02:47:49.859Z,99.10
2018-02-14T02:50:18.307Z,99.30
2018-02-14T02:52:46.696Z,99.30
2018-02-14T02:55:15.202Z,99.50
2018-02-14T02:57:43.624Z,99.50
2018-02-14T03:00:13.828Z,99.70
2018-02-14T03:02:42.217Z,99.90
2018-02-14T03:05:10.609Z,99.90
2018-02-14T03:07:39.749Z,99.90
2018-02-14T03:10:08.136Z,99.90
2018-02-14T03:12:36.534Z,99.90
2018-02-14T03:15:04.960Z,99.90
2018-02-14T03:17:34.296Z,99.90
2018-02-14T03:20:02.753Z,99.90
2018-02-14T03:22:31.183Z,99.90
2018-02-14T03:24:59.575Z,99.90
2018-02-14T03:27:28.019Z,99.90
2018-02-14T03:29:56.689Z,99.90
2018-02-14T03:32:25.085Z,99.90
2018-02-14T03:34:53.480Z,99.90
2018-02-14T03:37:21.908Z,99.90
2018-02-14T03:39:51.074Z,99.90
2018-02-14T03:42:19.603Z,99.90
2018-02-14T03:44:47.987Z,99.90
2018-02-14T03:47:16.462Z,99.90
2018-02-14T03:49:44.886Z,99.90
2018-02-14T03:52:13.306Z,99.90
2018-02-14T03:54:41.789Z,99.90
2018-02-14T03:57:10.956Z,99.90
2018-02-14T03:59:39.354Z,99.90
2018-02-14T04:02:08.715Z,99.90
2018-02-14T04:04:37.105Z,99.90
2018-02-14T04:07:05.506Z,99.90
2018-02-14T04:09:33.923Z,99.90
2018-02-14T04:12:02.267Z,99.90
2018-02-14T04:14:31.458Z,99.90
2018-02-14T04:16:59.795Z,99.90
2018-02-14T04:19:28.148Z,99.90
2018-02-14T04:21:56.600Z,99.90
2018-02-14T04:24:24.949Z,99.90
2018-02-14T04:26:53.398Z,99.90
2018-02-14T04:29:21.733Z,99.90
2018-02-14T04:31:50.113Z,99.90
2018-02-14T04:34:18.449Z,99.90
2018-02-14T04:36:47.115Z,99.90
2018-02-14T04:39:15.460Z,99.90
2018-02-14T04:41:43.800Z,99.90
2018-02-14T04:44:12.161Z,99.90
2018-02-14T04:46:40.495Z,99.90
2018-02-14T04:49:08.868Z,99.90
2018-02-14T04:51:37.368Z,99.90
2018-02-14T04:54:05.705Z,99.90
2018-02-14T04:56:34.048Z,99.90
2018-02-14T04:59:02.397Z,99.90
2018-02-14T05:01:31.552Z,99.90
2018-02-14T05:04:00.798Z,99.90
2018-02-14T05:06:29.142Z,99.90
2018-02-14T05:08:57.691Z,99.90
2018-02-14T05:11:26.049Z,99.90
2018-02-14T05:13:54.477Z,99.90
2018-02-14T05:16:23.139Z,99.90
2018-02-14T05:18:51.488Z,99.90
2018-02-14T05:21:20.587Z,99.90
2018-02-14T05:23:49.708Z,99.90
2018-02-14T05:26:18.047Z,99.90
2018-02-14T05:28:46.425Z,99.90
2018-02-14T05:31:15.364Z,99.90
2018-02-14T05:33:43.716Z,99.90
2018-02-14T05:36:12.062Z,99.90
2018-02-14T05:38:40.416Z,99.90
2018-02-14T05:41:08.893Z,99.90
2018-02-14T05:43:37.240Z,99.90
2018-02-14T05:46:05.612Z,99.90
2018-02-14T05:48:34.712Z,99.90
2018-02-14T05:51:03.213Z,99.90
2018-02-14T05:53:31.555Z,99.90
2018-02-14T05:56:01.007Z,99.90
2018-02-14T05:58:29.344Z,99.90
2018-02-14T06:00:58.438Z,99.90
2018-02-14T06:03:27.550Z,99.90
2018-02-14T06:05:55.888Z,99.90
2018-02-14T06:08:24.239Z,99.90
2018-02-14T06:10:52.575Z,99.90
2018-02-14T06:13:22.395Z,99.90
2018-02-14T06:15:50.728Z,99.90
2018-02-14T06:18:19.084Z,99.90
2018-02-14T06:20:47.426Z,99.90
2018-02-14T06:23:16.533Z,99.90
2018-02-14T06:25:44.884Z,99.90
2018-02-14T06:28:14.024Z,99.90
2018-02-14T06:30:42.739Z,99.90
2018-02-14T06:33:11.147Z,99.90
2018-02-14T06:35:39.576Z,99.90
2018-02-14T06:38:07.923Z,99.90
2018-02-14T06:40:37.040Z,99.90
2018-02-14T06:43:06.273Z,99.90
2018-02-14T06:45:34.628Z,99.90
2018-02-14T06:48:03.002Z,99.90
2018-02-14T06:50:31.406Z,99.90
2018-02-14T06:52:59.789Z,99.90
2018-02-14T06:55:28.320Z,99.90
2018-02-14T06:57:57.447Z,99.90
2018-02-14T07:00:25.790Z,99.90
2018-02-14T07:02:54.205Z,99.90
2018-02-14T07:05:22.559Z,99.90
2018-02-14T07:07:50.905Z,99.90
2018-02-14T07:10:19.351Z,99.90
2018-02-14T07:12:47.704Z,99.90
2018-02-14T07:15:16.056Z,99.90
2018-02-14T07:17:44.409Z,99.90
2018-02-14T07:20:13.567Z,99.90
2018-02-14T07:22:41.926Z,99.90
2018-02-14T07:25:11.088Z,99.90
2018-02-14T07:27:39.428Z,99.90
2018-02-14T07:30:07.767Z,99.90
2018-02-14T07:32:36.903Z,99.90
2018-02-14T07:35:05.250Z,99.90
2018-02-14T07:37:33.620Z,99.90
2018-02-14T07:40:02.737Z,99.90
2018-02-14T07:42:31.891Z,99.90
2018-02-14T07:45:00.344Z,99.90
2018-02-14T07:47:28.676Z,99.90
2018-02-14T07:49:57.804Z,99.90
2018-02-14T07:52:26.156Z,99.80
2018-02-14T07:54:55.276Z,99.40
2018-02-14T07:57:23.624Z,99.40
2018-02-14T07:59:51.975Z,99.50
2018-02-14T08:02:20.310Z,99.40
2018-02-14T08:04:48.685Z,98.80
2018-02-14T08:07:17.176Z,98.20
2018-02-14T08:09:45.487Z,97.80
2018-02-14T08:12:13.866Z,97.00
2018-02-14T08:14:42.195Z,96.80
2018-02-14T08:17:11.307Z,96.40
2018-02-14T08:19:39.693Z,96.40
2018-02-14T08:22:08.036Z,96.20
2018-02-14T08:24:36.498Z,95.80
2018-02-14T08:27:04.962Z,95.60
2018-02-14T08:29:33.301Z,95.50
2018-02-14T08:32:01.650Z,94.80
2018-02-14T08:34:30.888Z,94.60
2018-02-14T08:36:59.388Z,94.80
2018-02-14T08:39:27.728Z,94.40
2018-02-14T08:41:56.819Z,94.40
2018-02-14T08:44:25.910Z,94.20
2018-02-14T08:46:54.325Z,94.20
2018-02-14T08:49:22.675Z,94.30
2018-02-14T08:51:51.070Z,93.60
2018-02-14T08:54:19.411Z,93.30
2018-02-14T08:56:47.768Z,92.90
2018-02-14T08:59:16.225Z,93.00
2018-02-14T09:01:44.569Z,92.40
2018-02-14T09:04:12.895Z,91.70
2018-02-14T09:06:41.231Z,91.90
2018-02-14T09:09:10.447Z,91.50
2018-02-14T09:11:38.828Z,91.40
2018-02-14T09:14:07.184Z,91.70
2018-02-14T09:16:36.262Z,92.50
2018-02-14T09:19:04.608Z,92.90
2018-02-14T09:21:32.932Z,92.80
2018-02-14T09:24:02.080Z,92.80
2018-02-14T09:26:30.467Z,92.80
2018-02-14T09:28:58.808Z,92.30
2018-02-14T09:31:27.307Z,92.70
2018-02-14T09:33:55.637Z,93.00
2018-02-14T09:36:24.066Z,92.70
2018-02-14T09:38:52.444Z,92.50
2018-02-14T09:41:20.791Z,92.30
2018-02-14T09:43:49.891Z,92.70
2018-02-14T09:46:19.122Z,92.80
2018-02-14T09:48:47.462Z,92.80
2018-02-14T09:51:16.583Z,92.60
2018-02-14T09:53:44.937Z,92.60
2018-02-14T09:56:14.037Z,92.50
2018-02-14T09:58:43.144Z,91.90
2018-02-14T10:01:11.488Z,91.90
2018-02-14T10:03:39.840Z,91.70
2018-02-14T10:06:08.175Z,91.90
2018-02-14T10:08:37.318Z,91.60
2018-02-14T10:11:05.671Z,91.50
2018-02-14T10:13:34.066Z,91.70
2018-02-14T10:16:02.420Z,91.20
2018-02-14T10:18:30.782Z,91.40
2018-02-14T10:20:59.131Z,91.50
2018-02-14T10:23:27.484Z,91.80
2018-02-14T10:25:55.805Z,91.10
2018-02-14T10:28:24.168Z,91.10
2018-02-14T10:30:52.468Z,91.00
2018-02-14T10:33:20.809Z,90.90
2018-02-14T10:35:49.164Z,90.80
2018-02-14T10:38:17.511Z,90.70
2018-02-14T10:40:46.610Z,90.40
2018-02-14T10:43:15.738Z,90.20
2018-02-14T10:45:44.114Z,90.20
2018-02-14T10:48:12.448Z,91.20
2018-02-14T10:50:40.895Z,92.10
2018-02-14T10:53:09.239Z,92.20
2018-02-14T10:55:37.634Z,92.20
2018-02-14T10:58:05.996Z,92.70
2018-02-14T11:03:40.111Z,92.10
2018-02-14T11:06:13.419Z,91.90
2018-02-14T11:08:42.521Z,91.30
2018-02-14T11:11:10.861Z,91.30
2018-02-14T11:13:39.204Z,91.20
2018-02-14T11:16:07.562Z,91.20
2018-02-14T11:18:35.923Z,91.30
2018-02-14T11:21:05.020Z,91.00
2018-02-14T11:23:33.363Z,91.00
2018-02-14T11:26:01.716Z,91.10
2018-02-14T11:28:30.040Z,91.00
2018-02-14T11:30:58.470Z,90.90
2018-02-14T11:33:26.829Z,90.30
2018-02-14T11:35:55.178Z,90.50
2018-02-14T11:38:23.503Z,90.30
2018-02-14T11:40:51.893Z,87.60
2018-02-14T11:43:20.231Z,83.60
2018-02-14T11:45:48.569Z,75.20
2018-02-14T11:48:16.906Z,67.70
2018-02-14T11:50:45.392Z,62.00
2018-02-14T11:53:13.738Z,58.80
2018-02-14T11:55:42.841Z,53.80
2018-02-14T11:58:11.428Z,53.80
2018-02-14T12:00:39.778Z,52.30
2018-02-14T12:03:08.234Z,48.60
2018-02-14T12:05:36.558Z,47.10
2018-02-14T12:08:05.676Z,39.40
2018-02-14T12:10:34.122Z,38.80
2018-02-14T12:13:03.219Z,37.00
2018-02-14T12:15:32.347Z,35.60
2018-02-14T12:18:00.663Z,35.50
2018-02-14T12:20:29.642Z,36.50
2018-02-14T12:22:57.985Z,37.20
2018-02-14T12:25:27.092Z,35.10
2018-02-14T12:27:55.427Z,35.00
2018-02-14T12:30:23.788Z,36.20
2018-02-14T12:32:52.137Z,36.40
2018-02-14T12:35:20.584Z,36.70
2018-02-14T12:37:49.685Z,36.60
2018-02-14T12:40:18.802Z,35.10
2018-02-14T12:42:47.158Z,35.10
2018-02-14T12:45:16.259Z,36.60
2018-02-14T12:47:45.391Z,37.60
2018-02-14T12:50:13.723Z,37.50
2018-02-14T12:52:42.856Z,39.30
2018-02-14T12:55:11.188Z,39.30
2018-02-14T12:57:39.525Z,39.20
2018-02-14T13:00:07.873Z,38.70
2018-02-14T13:02:36.288Z,37.20
2018-02-14T13:05:04.665Z,37.10
2018-02-14T13:07:33.021Z,36.90
2018-02-14T13:10:01.355Z,37.60
2018-02-14T13:12:29.790Z,37.90
2018-02-14T13:14:58.121Z,37.40
2018-02-14T13:17:26.610Z,36.60
2018-02-14T13:19:55.726Z,37.10
2018-02-14T13:22:24.092Z,36.70
2018-02-14T13:24:53.187Z,40.00
2018-02-14T13:27:22.294Z,38.20
2018-02-14T13:29:51.526Z,38.00
2018-02-14T13:32:20.490Z,38.10
2018-02-14T13:34:49.617Z,37.00
2018-02-14T13:37:18.777Z,34.90
2018-02-14T13:39:48.016Z,33.40
2018-02-14T13:42:16.358Z,33.40
2018-02-14T13:44:45.607Z,33.20
2018-02-14T13:47:14.063Z,33.20
2018-02-14T13:49:42.449Z,32.70
2018-02-14T13:52:11.416Z,31.80
2018-02-14T13:54:40.507Z,30.70
2018-02-14T13:57:09.708Z,30.30
2018-02-14T13:59:38.064Z,30.30
2018-02-14T14:02:06.503Z,29.70
2018-02-14T14:04:34.864Z,29.50
2018-02-14T14:07:03.212Z,29.60
2018-02-14T14:09:32.338Z,33.00
2018-02-14T14:12:00.828Z,32.90
2018-02-14T14:14:29.412Z,33.10
2018-02-14T14:16:57.804Z,33.60
2018-02-14T14:19:26.168Z,33.40
2018-02-14T14:21:54.546Z,31.10
2018-02-14T14:24:22.938Z,30.20
2018-02-14T14:26:51.288Z,29.30
2018-02-14T14:29:19.630Z,28.30
2018-02-14T14:31:48.016Z,28.00
2018-02-14T14:34:16.360Z,28.70
2018-02-14T14:36:44.703Z,29.10
2018-02-14T14:39:13.832Z,27.90
2018-02-14T14:41:42.181Z,27.90
2018-02-14T14:44:10.540Z,27.60
2018-02-14T14:46:38.878Z,27.80
2018-02-14T14:49:07.548Z,28.30
2018-02-14T14:51:35.884Z,28.10
2018-02-14T14:54:05.181Z,29.20
2018-02-14T14:56:33.527Z,29.40
2018-02-14T14:59:01.855Z,29.50
2018-02-14T15:01:30.220Z,29.30
2018-02-14T15:03:59.366Z,30.00
2018-02-14T15:06:28.041Z,30.00
2018-02-14T15:08:56.392Z,31.30
2018-02-14T15:11:25.492Z,33.00
2018-02-14T15:13:54.703Z,34.20
2018-02-14T15:16:23.106Z,34.20
2018-02-14T15:18:51.467Z,34.80
2018-02-14T15:21:19.822Z,36.20
2018-02-14T15:23:48.188Z,37.90
2018-02-14T15:26:16.505Z,40.40
2018-02-14T15:28:44.876Z,42.80
2018-02-14T15:31:13.259Z,45.80
2018-02-14T15:33:41.726Z,47.20
2018-02-14T15:36:10.947Z,50.00
2018-02-14T15:38:39.275Z,49.90
2018-02-14T15:41:07.653Z,51.60
2018-02-14T15:43:35.994Z,52.30
2018-02-14T15:46:04.332Z,53.60
2018-02-14T15:48:32.669Z,54.20
2018-02-14T15:51:01.013Z,55.10
2018-02-14T15:53:29.368Z,56.80
2018-02-14T15:55:58.483Z,59.40
2018-02-14T15:58:26.827Z,59.40
2018-02-14T16:00:55.151Z,61.00
2018-02-14T16:03:23.484Z,62.70
2018-02-14T16:05:52.534Z,64.00
2018-02-14T16:08:20.903Z,66.00
2018-02-14T16:10:49.249Z,67.60
2018-02-14T16:13:18.368Z,69.50
2018-02-14T16:15:46.718Z,69.40
2018-02-14T16:18:15.828Z,73.80
2018-02-14T16:20:45.040Z,74.90
2018-02-14T16:23:13.371Z,74.80
2018-02-14T16:25:41.708Z,77.20
2018-02-14T16:28:10.057Z,79.40
2018-02-14T16:30:39.157Z,83.70
2018-02-14T16:33:08.872Z,86.00
2018-02-14T16:35:37.983Z,87.70
2018-02-14T16:38:06.695Z,87.60
2018-02-14T16:40:35.025Z,90.10
2018-02-14T16:43:04.147Z,91.70
2018-02-14T16:45:32.560Z,91.60
2018-02-14T16:48:00.987Z,92.20
2018-02-14T16:50:29.624Z,92.70
2018-02-14T16:52:57.957Z,93.10
2018-02-14T16:55:26.311Z,93.80
2018-02-14T16:57:54.664Z,94.40
2018-02-14T17:00:23.003Z,94.60
2018-02-14T17:02:51.387Z,95.00
2018-02-14T17:05:19.773Z,95.10
2018-02-14T17:07:48.111Z,95.20
2018-02-14T17:10:16.444Z,95.00
2018-02-14T17:12:44.805Z,94.80
2018-02-14T17:15:13.153Z,94.70
2018-02-14T17:17:42.280Z,95.20
2018-02-14T17:20:10.619Z,94.90
2018-02-14T17:22:39.757Z,95.00
2018-02-14T17:25:08.099Z,95.00
2018-02-14T17:27:36.465Z,95.10
2018-02-14T17:30:04.968Z,95.40
2018-02-14T17:32:33.291Z,95.10
2018-02-14T17:35:01.662Z,95.20
2018-02-14T17:37:30.140Z,95.40
2018-02-14T17:39:58.494Z,95.50
2018-02-14T17:42:26.823Z,95.60
2018-02-14T17:44:55.271Z,95.60
2018-02-14T17:47:23.630Z,95.70
2018-02-14T17:49:52.095Z,95.60
2018-02-14T17:52:20.465Z,95.60
2018-02-14T17:54:48.821Z,95.80
2018-02-14T17:57:17.171Z,95.80
2018-02-14T17:59:45.519Z,95.80
2018-02-14T18:02:14.644Z,96.00
2018-02-14T18:04:42.996Z,96.00
2018-02-14T18:07:12.228Z,96.60
2018-02-14T18:09:40.610Z,96.60
2018-02-14T18:12:08.998Z,96.60
2018-02-14T18:14:37.378Z,96.70
2018-02-14T18:17:05.746Z,96.80
2018-02-14T18:19:34.101Z,97.00
2018-02-14T18:22:02.452Z,97.10
2018-02-14T18:24:31.190Z,97.10
2018-02-14T18:26:59.531Z,97.30
2018-02-14T18:29:27.892Z,97.40
2018-02-14T18:31:56.264Z,97.60
2018-02-14T18:34:24.628Z,97.70
2018-02-14T18:36:53.001Z,97.80
2018-02-14T18:39:21.449Z,98.00
2018-02-14T18:41:49.919Z,98.20
2018-02-14T18:44:18.420Z,98.30
2018-02-14T18:46:47.021Z,98.50
2018-02-14T18:49:15.369Z,98.60
2018-02-14T18:51:43.781Z,98.70
2018-02-14T18:54:12.252Z,98.80
2018-02-14T18:56:40.628Z,98.70
2018-02-14T18:59:09.002Z,98.60
2018-02-14T19:01:37.338Z,98.60
2018-02-14T19:04:05.690Z,98.50
2018-02-14T19:06:34.038Z,98.50
2018-02-14T19:09:02.456Z,98.60
2018-02-14T19:11:30.835Z,98.50
2018-02-14T19:13:59.289Z,98.60
2018-02-14T19:16:27.655Z,98.50
2018-02-14T19:18:56.054Z,98.30
2018-02-14T19:21:24.445Z,98.20
2018-02-14T19:23:53.442Z,98.10
2018-02-14T19:26:21.797Z,98.10
2018-02-14T19:28:50.168Z,98.10
2018-02-14T19:31:18.562Z,98.00
2018-02-14T19:33:46.991Z,97.80
2018-02-14T19:36:16.108Z,97.90
2018-02-14T19:38:44.462Z,97.90
2018-02-14T19:41:12.840Z,97.80
2018-02-14T19:43:41.277Z,97.80
2018-02-14T19:46:09.630Z,97.90
2018-02-14T19:48:38.037Z,97.80
2018-02-14T19:51:06.398Z,97.70
2018-02-14T19:53:34.750Z,97.60
2018-02-14T19:56:03.113Z,97.30
2018-02-14T19:58:31.466Z,97.00
2018-02-14T20:00:59.996Z,97.10
2018-02-14T20:03:29.115Z,97.20
2018-02-14T20:05:57.464Z,97.20
2018-02-14T20:08:26.605Z,97.10
2018-02-14T20:10:54.992Z,97.10
2018-02-14T20:13:23.503Z,97.30
2018-02-14T20:15:51.828Z,97.40
2018-02-14T20:18:20.295Z,97.40
2018-02-14T20:20:48.892Z,97.60
2018-02-14T20:23:17.232Z,97.70
2018-02-14T20:25:45.601Z,97.70
2018-02-14T20:28:14.036Z,97.70
2018-02-14T20:30:43.121Z,97.40
2018-02-14T20:33:11.486Z,97.40
2018-02-14T20:35:40.596Z,97.40
2018-02-14T20:38:08.958Z,97.30
2018-02-14T20:40:38.069Z,97.40
2018-02-14T20:43:06.473Z,97.20
2018-02-14T20:45:35.706Z,96.90
2018-02-14T20:48:04.056Z,97.20
2018-02-14T20:50:32.432Z,96.90
2018-02-14T20:53:00.784Z,96.80
2018-02-14T20:55:29.155Z,97.00
2018-02-14T20:57:58.260Z,97.40
2018-02-14T21:00:26.612Z,97.30
2018-02-14T21:02:55.008Z,97.40
2018-02-14T21:05:24.149Z,97.60
2018-02-14T21:07:52.524Z,97.60
2018-02-14T21:10:20.882Z,97.70
2018-02-14T21:12:49.231Z,97.70
2018-02-14T21:15:18.372Z,98.00
2018-02-14T21:17:46.726Z,98.00
2018-02-14T21:20:15.072Z,98.10
2018-02-14T21:22:43.448Z,98.20
2018-02-14T21:25:11.814Z,98.10
2018-02-14T21:27:40.173Z,98.20
2018-02-14T21:30:08.589Z,98.20
2018-02-14T21:32:36.948Z,98.10
2018-02-14T21:35:05.467Z,98.20
2018-02-14T21:37:33.923Z,98.10
2018-02-14T21:40:02.283Z,99.10
2018-02-14T21:42:30.622Z,99.10
2018-02-14T21:44:59.018Z,98.10
2018-02-14T21:47:27.379Z,97.70
2018-02-14T21:49:56.518Z,97.70
2018-02-14T21:52:24.875Z,97.60
2018-02-14T21:54:53.237Z,97.70
2018-02-14T21:57:21.606Z,97.80
2018-02-14T21:59:50.730Z,98.00
2018-02-14T22:02:19.076Z,98.00
2018-02-14T22:04:48.205Z,98.00
2018-02-14T22:07:16.557Z,97.90
2018-02-14T22:09:45.712Z,98.00
2018-02-14T22:12:14.677Z,98.00
2018-02-14T22:14:43.057Z,97.90
2018-02-14T22:17:11.399Z,97.90
2018-02-14T22:19:40.511Z,97.60
2018-02-14T22:22:08.874Z,97.60
2018-02-14T22:24:37.993Z,97.40
2018-02-14T22:27:06.355Z,97.40
2018-02-14T22:29:35.223Z,97.30
2018-02-14T22:32:03.680Z,97.20
2018-02-14T22:34:32.040Z,97.30
2018-02-14T22:37:00.374Z,97.50
2018-02-14T22:39:29.509Z,97.80
2018-02-14T22:41:57.851Z,97.80
2018-02-14T22:44:26.964Z,98.00
2018-02-14T22:46:55.325Z,98.00
2018-02-14T22:49:24.457Z,98.50
2018-02-14T22:51:52.810Z,98.30
2018-02-14T22:54:21.948Z,98.40
2018-02-14T22:56:50.296Z,98.40
2018-02-14T22:59:18.735Z,98.50
2018-02-14T23:01:47.177Z,98.50
2018-02-14T23:04:15.520Z,98.40
2018-02-14T23:06:44.746Z,98.50
2018-02-14T23:09:13.087Z,98.40
2018-02-14T23:11:41.447Z,98.50
2018-02-14T23:14:09.903Z,98.70
2018-02-14T23:16:38.237Z,98.80
2018-02-14T23:19:07.365Z,99.00
2018-02-14T23:21:35.724Z,99.00
2018-02-14T23:24:04.088Z,99.00
2018-02-14T23:26:33.237Z,98.90
2018-02-14T23:29:01.604Z,98.90
2018-02-14T23:31:29.976Z,99.00
2018-02-14T23:33:58.376Z,99.00
2018-02-14T23:36:26.749Z,98.90
2018-02-14T23:38:55.100Z,99.00
2018-02-14T23:41:23.476Z,99.00
2018-02-14T23:43:51.838Z,98.90
2018-02-14T23:46:21.114Z,98.90
2018-02-14T23:48:49.487Z,98.90
2018-02-14T23:51:17.969Z,98.80
2018-02-14T23:53:46.460Z,98.80
2018-02-14T23:56:14.947Z,98.90
2018-02-14T23:58:43.650Z,98.80
